sensor_id;sensor_type;location;lat;lon;timestamp;pressure;altitude;pressure_sealevel;temperature;humidity
43364;BME280;40636;52.424;-1.948;2024-02-23T00:02:14;96834.22;;;2.67;85.01
43364;BME280;40636;52.424;-1.948;2024-02-23T00:04:41;96831.63;;;2.68;85.15
43364;BME280;40636;52.424;-1.948;2024-02-23T00:07:08;96833.31;;;2.69;85.46
43364;BME280;40636;52.424;-1.948;2024-02-23T00:09:35;96834.16;;;2.70;85.21
43364;BME280;40636;52.424;-1.948;2024-02-23T00:12:03;96831.59;;;2.70;85.21
43364;BME280;40636;52.424;-1.948;2024-02-23T00:14:30;96826.50;;;2.68;84.99
43364;BME280;40636;52.424;-1.948;2024-02-23T00:17:03;96829.91;;;2.69;85.10
43364;BME280;40636;52.424;-1.948;2024-02-23T00:19:30;96829.91;;;2.69;84.75
43364;BME280;40636;52.424;-1.948;2024-02-23T00:21:58;96833.31;;;2.69;85.13
43364;BME280;40636;52.424;-1.948;2024-02-23T00:24:26;96840.06;;;2.72;85.36
43364;BME280;40636;52.424;-1.948;2024-02-23T00:26:54;96836.66;;;2.71;85.54
43364;BME280;40636;52.424;-1.948;2024-02-23T00:29:20;96843.41;;;2.74;85.51
43364;BME280;40636;52.424;-1.948;2024-02-23T00:31:49;96845.06;;;2.76;85.32
43364;BME280;40636;52.424;-1.948;2024-02-23T00:34:16;96848.41;;;2.78;85.23
43364;BME280;40636;52.424;-1.948;2024-02-23T00:36:43;96847.53;;;2.79;85.30
43364;BME280;40636;52.424;-1.948;2024-02-23T00:39:11;96850.03;;;2.81;85.65
43364;BME280;40636;52.424;-1.948;2024-02-23T00:41:38;96846.59;;;2.82;85.04
43364;BME280;40636;52.424;-1.948;2024-02-23T00:44:05;96848.22;;;2.84;85.22
43364;BME280;40636;52.424;-1.948;2024-02-23T00:46:33;96845.63;;;2.86;85.34
43364;BME280;40636;52.424;-1.948;2024-02-23T00:49:00;96846.41;;;2.88;85.33
43364;BME280;40636;52.424;-1.948;2024-02-23T00:51:28;96836.09;;;2.91;85.73
43364;BME280;40636;52.424;-1.948;2024-02-23T00:53:54;96838.66;;;2.91;85.79
43364;BME280;40636;52.424;-1.948;2024-02-23T00:56:21;96828.38;;;2.93;85.52
43364;BME280;40636;52.424;-1.948;2024-02-23T00:58:58;96827.53;;;2.92;86.07
43364;BME280;40636;52.424;-1.948;2024-02-23T01:01:25;96833.50;;;2.93;86.08
43364;BME280;40636;52.424;-1.948;2024-02-23T01:03:53;96830.00;;;2.95;86.10
43364;BME280;40636;52.424;-1.948;2024-02-23T01:06:20;96835.13;;;2.95;86.11
43364;BME280;40636;52.424;-1.948;2024-02-23T01:08:47;96837.59;;;2.98;85.98
43364;BME280;40636;52.424;-1.948;2024-02-23T01:11:14;96843.53;;;3.00;86.67
43364;BME280;40636;52.424;-1.948;2024-02-23T01:13:41;96837.41;;;3.04;86.41
43364;BME280;40636;52.424;-1.948;2024-02-23T01:16:08;96826.28;;;3.05;86.47
43364;BME280;40636;52.424;-1.948;2024-02-23T01:18:35;96827.94;;;3.06;86.11
43364;BME280;40636;52.424;-1.948;2024-02-23T01:21:02;96817.50;;;3.12;86.42
43364;BME280;40636;52.424;-1.948;2024-02-23T01:23:29;96820.81;;;3.16;86.92
43364;BME280;40636;52.424;-1.948;2024-02-23T01:25:56;96831.88;;;3.18;86.40
43364;BME280;40636;52.424;-1.948;2024-02-23T01:28:23;96831.78;;;3.21;86.63
43364;BME280;40636;52.424;-1.948;2024-02-23T01:30:49;96823.03;;;3.27;86.50
43364;BME280;40636;52.424;-1.948;2024-02-23T01:33:17;96821.22;;;3.30;86.99
43364;BME280;40636;52.424;-1.948;2024-02-23T01:35:44;96816.00;;;3.33;87.20
43364;BME280;40636;52.424;-1.948;2024-02-23T01:38:10;96813.34;;;3.36;87.01
43364;BME280;40636;52.424;-1.948;2024-02-23T01:40:38;96812.34;;;3.40;87.58
43364;BME280;40636;52.424;-1.948;2024-02-23T01:43:05;96810.56;;;3.42;87.10
43364;BME280;40636;52.424;-1.948;2024-02-23T01:45:32;96797.69;;;3.44;87.01
43364;BME280;40636;52.424;-1.948;2024-02-23T01:48:00;96800.22;;;3.45;87.20
43364;BME280;40636;52.424;-1.948;2024-02-23T01:50:27;96787.38;;;3.47;87.65
43364;BME280;40636;52.424;-1.948;2024-02-23T01:53:00;96793.34;;;3.47;87.11
43364;BME280;40636;52.424;-1.948;2024-02-23T01:55:27;96781.28;;;3.49;87.06
43364;BME280;40636;52.424;-1.948;2024-02-23T01:57:58;96784.69;;;3.50;87.21
43364;BME280;40636;52.424;-1.948;2024-02-23T02:00:27;96790.63;;;3.52;86.91
43364;BME280;40636;52.424;-1.948;2024-02-23T02:02:54;96785.44;;;3.54;86.97
43364;BME280;40636;52.424;-1.948;2024-02-23T02:05:21;96786.22;;;3.56;87.17
43364;BME280;40636;52.424;-1.948;2024-02-23T02:07:50;96789.63;;;3.56;87.57
43364;BME280;40636;52.424;-1.948;2024-02-23T02:10:20;96791.25;;;3.59;87.09
43364;BME280;40636;52.424;-1.948;2024-02-23T02:12:48;96797.97;;;3.63;87.60
43364;BME280;40636;52.424;-1.948;2024-02-23T02:15:15;96795.28;;;3.66;87.90
43364;BME280;40636;52.424;-1.948;2024-02-23T02:17:41;96797.81;;;3.67;87.57
43364;BME280;40636;52.424;-1.948;2024-02-23T02:20:12;96795.19;;;3.69;87.50
43364;BME280;40636;52.424;-1.948;2024-02-23T02:22:40;96802.88;;;3.69;87.65
43364;BME280;40636;52.424;-1.948;2024-02-23T02:25:07;96790.00;;;3.70;87.88
43364;BME280;40636;52.424;-1.948;2024-02-23T02:27:34;96777.19;;;3.70;87.15
43364;BME280;40636;52.424;-1.948;2024-02-23T02:30:01;96778.94;;;3.68;87.67
43364;BME280;40636;52.424;-1.948;2024-02-23T02:32:28;96786.66;;;3.68;87.40
43364;BME280;40636;52.424;-1.948;2024-02-23T02:34:58;96775.66;;;3.65;87.60
43364;BME280;40636;52.424;-1.948;2024-02-23T02:37:25;96773.09;;;3.65;87.26
43364;BME280;40636;52.424;-1.948;2024-02-23T02:39:52;96770.53;;;3.65;87.48
43364;BME280;40636;52.424;-1.948;2024-02-23T02:42:19;96763.75;;;3.62;87.47
43364;BME280;40636;52.424;-1.948;2024-02-23T02:44:46;96768.91;;;3.62;87.66
43364;BME280;40636;52.424;-1.948;2024-02-23T02:47:12;96771.41;;;3.64;87.64
43364;BME280;40636;52.424;-1.948;2024-02-23T02:49:40;96768.00;;;3.63;87.25
43364;BME280;40636;52.424;-1.948;2024-02-23T02:52:07;96773.28;;;3.59;87.17
43364;BME280;40636;52.424;-1.948;2024-02-23T02:54:35;96766.47;;;3.58;87.51
43364;BME280;40636;52.424;-1.948;2024-02-23T02:57:01;96766.47;;;3.58;87.16
43364;BME280;40636;52.424;-1.948;2024-02-23T02:59:28;96749.41;;;3.57;87.13
43364;BME280;40636;52.424;-1.948;2024-02-23T03:01:55;96751.25;;;3.53;87.21
43364;BME280;40636;52.424;-1.948;2024-02-23T03:04:24;96754.81;;;3.49;87.05
43364;BME280;40636;52.424;-1.948;2024-02-23T03:06:50;96752.34;;;3.44;87.08
43364;BME280;40636;52.424;-1.948;2024-02-23T03:09:17;96751.66;;;3.39;87.30
43364;BME280;40636;52.424;-1.948;2024-02-23T03:11:44;96749.22;;;3.36;86.74
43364;BME280;40636;52.424;-1.948;2024-02-23T03:14:11;96761.34;;;3.31;86.67
43364;BME280;40636;52.424;-1.948;2024-02-23T03:16:39;96768.34;;;3.26;86.61
43364;BME280;40636;52.424;-1.948;2024-02-23T03:19:06;96761.53;;;3.25;86.76
43364;BME280;40636;52.424;-1.948;2024-02-23T03:21:34;96762.38;;;3.26;87.08
43364;BME280;40636;52.424;-1.948;2024-02-23T03:24:05;96770.06;;;3.26;87.46
43364;BME280;40636;52.424;-1.948;2024-02-23T03:26:32;96768.34;;;3.26;87.03
43364;BME280;40636;52.424;-1.948;2024-02-23T03:28:59;96770.13;;;3.24;87.43
43364;BME280;40636;52.424;-1.948;2024-02-23T03:31:26;96762.63;;;3.18;87.23
43364;BME280;40636;52.424;-1.948;2024-02-23T03:33:53;96747.38;;;3.13;86.83
43364;BME280;40636;52.424;-1.948;2024-02-23T03:36:20;96746.66;;;3.10;87.16
43364;BME280;40636;52.424;-1.948;2024-02-23T03:38:47;96743.34;;;3.06;87.17
43364;BME280;40636;52.424;-1.948;2024-02-23T03:41:14;96747.78;;;3.01;87.39
43364;BME280;40636;52.424;-1.948;2024-02-23T03:43:41;96751.31;;;2.97;87.00
43364;BME280;40636;52.424;-1.948;2024-02-23T03:46:07;96738.66;;;2.93;86.94
43364;BME280;40636;52.424;-1.948;2024-02-23T03:48:34;96749.84;;;2.90;87.46
43364;BME280;40636;52.424;-1.948;2024-02-23T03:51:04;96750.78;;;2.86;87.03
43364;BME280;40636;52.424;-1.948;2024-02-23T03:53:31;96736.41;;;2.82;87.23
43364;BME280;40636;52.424;-1.948;2024-02-23T03:55:58;96737.34;;;2.79;86.91
43364;BME280;40636;52.424;-1.948;2024-02-23T03:58:25;96745.13;;;2.76;87.18
43364;BME280;40636;52.424;-1.948;2024-02-23T04:00:52;96749.44;;;2.74;87.44
43364;BME280;40636;52.424;-1.948;2024-02-23T04:03:20;96758.94;;;2.71;87.39
43364;BME280;40636;52.424;-1.948;2024-02-23T04:05:46;96751.34;;;2.68;87.39
43364;BME280;40636;52.424;-1.948;2024-02-23T04:08:13;96749.78;;;2.64;87.99
43364;BME280;40636;52.424;-1.948;2024-02-23T04:10:40;96742.13;;;2.62;87.50
43364;BME280;40636;52.424;-1.948;2024-02-23T04:13:07;96740.50;;;2.60;87.47
43364;BME280;40636;52.424;-1.948;2024-02-23T04:15:34;96741.44;;;2.57;87.77
43364;BME280;40636;52.424;-1.948;2024-02-23T04:18:02;96738.06;;;2.55;87.84
43364;BME280;40636;52.424;-1.948;2024-02-23T04:20:29;96740.69;;;2.53;87.72
43364;BME280;40636;52.424;-1.948;2024-02-23T04:22:56;96741.66;;;2.49;87.35
43364;BME280;40636;52.424;-1.948;2024-02-23T04:25:23;96743.47;;;2.46;87.62
43364;BME280;40636;52.424;-1.948;2024-02-23T04:27:50;96740.91;;;2.46;87.51
43364;BME280;40636;52.424;-1.948;2024-02-23T04:30:17;96746.97;;;2.43;88.14
43364;BME280;40636;52.424;-1.948;2024-02-23T04:32:44;96738.50;;;2.41;87.75
43364;BME280;40636;52.424;-1.948;2024-02-23T04:35:11;96743.63;;;2.41;88.01
43364;BME280;40636;52.424;-1.948;2024-02-23T04:37:37;96747.00;;;2.42;87.90
43364;BME280;40636;52.424;-1.948;2024-02-23T04:40:06;96750.50;;;2.39;88.25
43364;BME280;40636;52.424;-1.948;2024-02-23T04:42:33;96752.22;;;2.39;87.67
43364;BME280;40636;52.424;-1.948;2024-02-23T04:45:00;96760.84;;;2.36;88.16
43364;BME280;40636;52.424;-1.948;2024-02-23T04:47:27;96760.00;;;2.36;87.66
43364;BME280;40636;52.424;-1.948;2024-02-23T04:49:54;96760.91;;;2.33;87.68
43364;BME280;40636;52.424;-1.948;2024-02-23T04:52:21;96757.53;;;2.33;87.85
43364;BME280;40636;52.424;-1.948;2024-02-23T04:54:47;96763.53;;;2.30;87.69
43364;BME280;40636;52.424;-1.948;2024-02-23T04:57:14;96790.88;;;2.30;87.92
43364;BME280;40636;52.424;-1.948;2024-02-23T04:59:41;96775.59;;;2.27;87.88
43364;BME280;40636;52.424;-1.948;2024-02-23T05:02:09;96796.06;;;2.27;88.42
43364;BME280;40636;52.424;-1.948;2024-02-23T05:04:36;96794.41;;;2.26;88.00
43364;BME280;40636;52.424;-1.948;2024-02-23T05:07:03;96802.06;;;2.26;88.16
43364;BME280;40636;52.424;-1.948;2024-02-23T05:09:30;96811.47;;;2.25;88.35
43364;BME280;40636;52.424;-1.948;2024-02-23T05:11:58;96804.69;;;2.24;87.79
43364;BME280;40636;52.424;-1.948;2024-02-23T05:14:26;96808.06;;;2.25;88.14
43364;BME280;40636;52.424;-1.948;2024-02-23T05:16:53;96800.44;;;2.23;87.98
43364;BME280;40636;52.424;-1.948;2024-02-23T05:19:20;96797.88;;;2.23;88.27
43364;BME280;40636;52.424;-1.948;2024-02-23T05:21:47;96801.31;;;2.22;88.01
43364;BME280;40636;52.424;-1.948;2024-02-23T05:24:14;96800.47;;;2.21;88.02
43364;BME280;40636;52.424;-1.948;2024-02-23T05:26:41;96793.69;;;2.20;87.95
43364;BME280;40636;52.424;-1.948;2024-02-23T05:29:10;96801.41;;;2.19;87.91
43364;BME280;40636;52.424;-1.948;2024-02-23T05:31:50;96799.69;;;2.19;88.16
43364;BME280;40636;52.424;-1.948;2024-02-23T05:34:18;96808.25;;;2.18;88.01
43364;BME280;40636;52.424;-1.948;2024-02-23T05:36:46;96808.25;;;2.18;88.02
43364;BME280;40636;52.424;-1.948;2024-02-23T05:39:14;96798.94;;;2.16;88.23
43364;BME280;40636;52.424;-1.948;2024-02-23T05:41:44;96804.94;;;2.15;88.10
43364;BME280;40636;52.424;-1.948;2024-02-23T05:44:11;96800.69;;;2.14;88.07
43364;BME280;40636;52.424;-1.948;2024-02-23T05:46:42;96797.28;;;2.13;88.26
43364;BME280;40636;52.424;-1.948;2024-02-23T05:49:09;96805.84;;;2.12;88.21
43364;BME280;40636;52.424;-1.948;2024-02-23T05:51:36;96806.75;;;2.11;87.89
43364;BME280;40636;52.424;-1.948;2024-02-23T05:54:03;96806.75;;;2.11;88.13
43364;BME280;40636;52.424;-1.948;2024-02-23T05:56:30;96811.06;;;2.09;87.76
43364;BME280;40636;52.424;-1.948;2024-02-23T05:58:57;96816.19;;;2.09;88.24
43364;BME280;40636;52.424;-1.948;2024-02-23T06:01:24;96811.06;;;2.09;87.85
43364;BME280;40636;52.424;-1.948;2024-02-23T06:03:51;96816.22;;;2.08;88.41
43364;BME280;40636;52.424;-1.948;2024-02-23T06:06:20;96819.63;;;2.08;88.11
43364;BME280;40636;52.424;-1.948;2024-02-23T06:08:47;96823.91;;;2.08;88.12
43364;BME280;40636;52.424;-1.948;2024-02-23T06:11:16;96827.34;;;2.07;88.02
43364;BME280;40636;52.424;-1.948;2024-02-23T06:13:43;96841.84;;;2.06;87.82
43364;BME280;40636;52.424;-1.948;2024-02-23T06:16:10;96833.34;;;2.06;88.34
43364;BME280;40636;52.424;-1.948;2024-02-23T06:18:40;96844.50;;;2.03;88.25
43364;BME280;40636;52.424;-1.948;2024-02-23T06:21:14;96843.66;;;2.03;88.07
43364;BME280;40636;52.424;-1.948;2024-02-23T06:23:42;96843.66;;;2.03;88.05
43364;BME280;40636;52.424;-1.948;2024-02-23T06:26:09;96841.97;;;2.02;87.96
43364;BME280;40636;52.424;-1.948;2024-02-23T06:28:36;96835.97;;;2.03;88.37
43364;BME280;40636;52.424;-1.948;2024-02-23T06:31:09;96849.69;;;2.00;88.23
43364;BME280;40636;52.424;-1.948;2024-02-23T06:33:36;96857.38;;;2.00;87.85
43364;BME280;40636;52.424;-1.948;2024-02-23T06:36:04;96858.22;;;2.01;88.17
43364;BME280;40636;52.424;-1.948;2024-02-23T06:38:31;96859.03;;;2.03;88.11
43364;BME280;40636;52.424;-1.948;2024-02-23T06:40:58;96849.50;;;2.08;88.76
43364;BME280;40636;52.424;-1.948;2024-02-23T06:43:25;96847.69;;;2.11;88.32
43364;BME280;40636;52.424;-1.948;2024-02-23T06:45:53;96845.06;;;2.14;88.91
43364;BME280;40636;52.424;-1.948;2024-02-23T06:48:20;96860.25;;;2.20;88.48
43364;BME280;40636;52.424;-1.948;2024-02-23T06:50:47;96860.13;;;2.25;88.33
43364;BME280;40636;52.424;-1.948;2024-02-23T06:53:14;96850.59;;;2.30;88.89
43364;BME280;40636;52.424;-1.948;2024-02-23T06:55:41;96851.44;;;2.32;88.89
43364;BME280;40636;52.424;-1.948;2024-02-23T06:58:08;96849.63;;;2.36;88.50
43364;BME280;40636;52.424;-1.948;2024-02-23T07:00:37;96857.19;;;2.40;88.59
43364;BME280;40636;52.424;-1.948;2024-02-23T07:03:04;96859.63;;;2.45;88.47
43364;BME280;40636;52.424;-1.948;2024-02-23T07:05:31;96865.44;;;2.50;88.58
43364;BME280;40636;52.424;-1.948;2024-02-23T07:07:59;96869.56;;;2.56;89.07
43364;BME280;40636;52.424;-1.948;2024-02-23T07:10:26;96866.00;;;2.61;88.86
43364;BME280;40636;52.424;-1.948;2024-02-23T07:12:53;96865.06;;;2.64;88.45
43364;BME280;40636;52.424;-1.948;2024-02-23T07:15:20;96866.75;;;2.65;88.78
43364;BME280;40636;52.424;-1.948;2024-02-23T07:17:47;96864.97;;;2.67;88.50
43364;BME280;40636;52.424;-1.948;2024-02-23T07:20:14;96869.22;;;2.68;88.35
43364;BME280;40636;52.424;-1.948;2024-02-23T07:22:47;96862.41;;;2.67;88.01
43364;BME280;40636;52.424;-1.948;2024-02-23T07:25:18;96871.78;;;2.68;88.47
43364;BME280;40636;52.424;-1.948;2024-02-23T07:27:47;96876.03;;;2.69;88.26
43364;BME280;40636;52.424;-1.948;2024-02-23T07:30:17;96878.59;;;2.69;88.21
43364;BME280;40636;52.424;-1.948;2024-02-23T07:32:44;96879.44;;;2.69;87.51
43364;BME280;40636;52.424;-1.948;2024-02-23T07:35:16;96881.94;;;2.71;87.98
43364;BME280;40636;52.424;-1.948;2024-02-23T07:37:43;96896.47;;;2.70;87.88
43364;BME280;40636;52.424;-1.948;2024-02-23T07:40:10;96872.63;;;2.68;87.76
43364;BME280;40636;52.424;-1.948;2024-02-23T07:42:37;96894.84;;;2.68;87.99
43364;BME280;40636;52.424;-1.948;2024-02-23T07:45:06;96883.66;;;2.70;87.77
43364;BME280;40636;52.424;-1.948;2024-02-23T07:47:33;96886.22;;;2.70;88.25
43364;BME280;40636;52.424;-1.948;2024-02-23T07:50:01;96893.09;;;2.70;87.55
43364;BME280;40636;52.424;-1.948;2024-02-23T07:52:28;96904.16;;;2.70;87.43
43364;BME280;40636;52.424;-1.948;2024-02-23T07:54:54;96910.19;;;2.69;87.80
43364;BME280;40636;52.424;-1.948;2024-02-23T07:57:21;96912.75;;;2.69;87.56
43364;BME280;40636;52.424;-1.948;2024-02-23T07:59:48;96905.84;;;2.71;87.69
43364;BME280;40636;52.424;-1.948;2024-02-23T08:02:15;96905.81;;;2.73;87.84
43364;BME280;40636;52.424;-1.948;2024-02-23T08:04:42;96916.81;;;2.76;87.49
43364;BME280;40636;52.424;-1.948;2024-02-23T08:07:10;96912.44;;;2.80;87.74
43364;BME280;40636;52.424;-1.948;2024-02-23T08:09:37;96923.50;;;2.82;88.11
43364;BME280;40636;52.424;-1.948;2024-02-23T08:12:04;96921.63;;;2.87;87.72
43364;BME280;40636;52.424;-1.948;2024-02-23T08:14:32;96922.38;;;2.92;87.78
43364;BME280;40636;52.424;-1.948;2024-02-23T08:16:59;96916.28;;;2.96;87.91
43364;BME280;40636;52.424;-1.948;2024-02-23T08:19:26;96918.72;;;3.01;87.68
43364;BME280;40636;52.424;-1.948;2024-02-23T08:21:53;96922.81;;;3.06;87.85
43364;BME280;40636;52.424;-1.948;2024-02-23T08:24:20;96925.22;;;3.12;87.65
43364;BME280;40636;52.424;-1.948;2024-02-23T08:26:47;96926.75;;;3.18;88.30
43364;BME280;40636;52.424;-1.948;2024-02-23T08:29:14;96934.25;;;3.24;87.84
43364;BME280;40636;52.424;-1.948;2024-02-23T08:31:42;96937.41;;;3.34;87.86
43364;BME280;40636;52.424;-1.948;2024-02-23T08:34:08;96939.59;;;3.46;87.87
43364;BME280;40636;52.424;-1.948;2024-02-23T08:36:35;96936.72;;;3.57;88.35
43364;BME280;40636;52.424;-1.948;2024-02-23T08:39:03;96942.47;;;3.65;88.30
43364;BME280;40636;52.424;-1.948;2024-02-23T08:41:30;96936.25;;;3.72;88.08
43364;BME280;40636;52.424;-1.948;2024-02-23T08:43:57;96934.34;;;3.78;87.91
43364;BME280;40636;52.424;-1.948;2024-02-23T08:46:24;96937.66;;;3.82;87.06
43364;BME280;40636;52.424;-1.948;2024-02-23T08:48:51;96946.03;;;3.87;87.25
43364;BME280;40636;52.424;-1.948;2024-02-23T08:51:18;96951.78;;;3.95;86.77
43364;BME280;40636;52.424;-1.948;2024-02-23T08:53:45;96946.44;;;4.01;87.42
43364;BME280;40636;52.424;-1.948;2024-02-23T08:56:12;96952.25;;;4.08;87.03
43364;BME280;40636;52.424;-1.948;2024-02-23T08:58:39;96955.41;;;4.16;86.88
43364;BME280;40636;52.424;-1.948;2024-02-23T09:01:06;96952.59;;;4.24;87.05
43364;BME280;40636;52.424;-1.948;2024-02-23T09:03:33;96960.97;;;4.29;86.82
43364;BME280;40636;52.424;-1.948;2024-02-23T09:05:59;96961.72;;;4.32;86.53
43364;BME280;40636;52.424;-1.948;2024-02-23T09:08:27;96964.97;;;4.37;86.15
43364;BME280;40636;52.424;-1.948;2024-02-23T09:10:54;96971.75;;;4.40;86.19
43364;BME280;40636;52.424;-1.948;2024-02-23T09:13:21;96964.72;;;4.45;85.89
43364;BME280;40636;52.424;-1.948;2024-02-23T09:15:47;96961.03;;;4.52;86.43
43364;BME280;40636;52.424;-1.948;2024-02-23T09:18:14;96958.13;;;4.63;86.06
43364;BME280;40636;52.424;-1.948;2024-02-23T09:20:41;96958.72;;;4.71;85.96
43364;BME280;40636;52.424;-1.948;2024-02-23T09:23:08;96949.06;;;4.78;85.66
43364;BME280;40636;52.424;-1.948;2024-02-23T09:25:36;96952.34;;;4.81;85.17
43364;BME280;40636;52.424;-1.948;2024-02-23T09:28:03;96959.38;;;4.76;85.19
43364;BME280;40636;52.424;-1.948;2024-02-23T09:30:30;96962.84;;;4.75;84.86
43364;BME280;40636;52.424;-1.948;2024-02-23T09:32:56;96959.28;;;4.79;84.76
43364;BME280;40636;52.424;-1.948;2024-02-23T09:35:23;96958.38;;;4.80;84.71
43364;BME280;40636;52.424;-1.948;2024-02-23T09:37:50;96963.31;;;4.86;85.18
43364;BME280;40636;52.424;-1.948;2024-02-23T09:40:17;96969.88;;;4.95;84.93
43364;BME280;40636;52.424;-1.948;2024-02-23T09:42:50;96967.06;;;5.01;85.11
43364;BME280;40636;52.424;-1.948;2024-02-23T09:45:21;96967.75;;;5.06;84.92
43364;BME280;40636;52.424;-1.948;2024-02-23T09:47:48;96970.94;;;5.13;84.82
43364;BME280;40636;52.424;-1.948;2024-02-23T09:50:17;96974.19;;;5.18;84.74
43364;BME280;40636;52.424;-1.948;2024-02-23T09:52:45;96976.56;;;5.24;84.28
43364;BME280;40636;52.424;-1.948;2024-02-23T09:55:13;96985.84;;;5.28;84.40
43364;BME280;40636;52.424;-1.948;2024-02-23T09:57:41;96978.84;;;5.31;84.13
43364;BME280;40636;52.424;-1.948;2024-02-23T10:00:09;96983.06;;;5.34;83.93
43364;BME280;40636;52.424;-1.948;2024-02-23T10:02:36;96991.38;;;5.40;84.03
43364;BME280;40636;52.424;-1.948;2024-02-23T10:05:04;96991.22;;;5.45;83.95
43364;BME280;40636;52.424;-1.948;2024-02-23T10:07:31;96996.13;;;5.51;83.95
43364;BME280;40636;52.424;-1.948;2024-02-23T10:09:58;96998.38;;;5.60;83.82
43364;BME280;40636;52.424;-1.948;2024-02-23T10:12:25;96993.81;;;5.67;83.78
43364;BME280;40636;52.424;-1.948;2024-02-23T10:14:52;96996.16;;;5.73;83.77
43364;BME280;40636;52.424;-1.948;2024-02-23T10:17:20;96995.97;;;5.79;83.62
43364;BME280;40636;52.424;-1.948;2024-02-23T10:19:47;96993.00;;;5.90;83.54
43364;BME280;40636;52.424;-1.948;2024-02-23T10:22:14;96995.28;;;5.97;83.18
43364;BME280;40636;52.424;-1.948;2024-02-23T10:24:42;96998.38;;;6.06;82.95
43364;BME280;40636;52.424;-1.948;2024-02-23T10:27:09;97004.91;;;6.14;82.73
43364;BME280;40636;52.424;-1.948;2024-02-23T10:29:36;97003.84;;;6.20;81.96
43364;BME280;40636;52.424;-1.948;2024-02-23T10:32:05;97005.44;;;6.22;81.99
43364;BME280;40636;52.424;-1.948;2024-02-23T10:34:33;97001.00;;;6.26;81.85
43364;BME280;40636;52.424;-1.948;2024-02-23T10:37:05;96992.25;;;6.30;82.06
43364;BME280;40636;52.424;-1.948;2024-02-23T10:39:36;96995.47;;;6.35;81.79
43364;BME280;40636;52.424;-1.948;2024-02-23T10:42:04;96998.81;;;6.39;81.37
43364;BME280;40636;52.424;-1.948;2024-02-23T10:44:35;97002.09;;;6.42;81.02
43364;BME280;40636;52.424;-1.948;2024-02-23T10:47:04;97003.59;;;6.48;81.10
43364;BME280;40636;52.424;-1.948;2024-02-23T10:49:31;97011.97;;;6.53;81.52
43364;BME280;40636;52.424;-1.948;2024-02-23T10:52:00;97018.69;;;6.57;81.08
43364;BME280;40636;52.424;-1.948;2024-02-23T10:54:29;97015.97;;;6.60;80.95
43364;BME280;40636;52.424;-1.948;2024-02-23T10:56:58;97021.84;;;6.63;80.32
43364;BME280;40636;52.424;-1.948;2024-02-23T10:59:26;97026.75;;;6.70;80.83
43364;BME280;40636;52.424;-1.948;2024-02-23T11:01:54;97023.84;;;6.77;80.67
43364;BME280;40636;52.424;-1.948;2024-02-23T11:04:27;97030.56;;;6.81;80.17
43364;BME280;40636;52.424;-1.948;2024-02-23T11:06:55;97043.47;;;6.81;80.30
43364;BME280;40636;52.424;-1.948;2024-02-23T11:09:26;97032.38;;;6.79;80.18
43364;BME280;40636;52.424;-1.948;2024-02-23T11:11:58;97026.56;;;6.74;79.70
43364;BME280;40636;52.424;-1.948;2024-02-23T11:14:30;97036.28;;;6.68;79.58
43364;BME280;40636;52.424;-1.948;2024-02-23T11:16:59;97033.78;;;6.66;80.22
43364;BME280;40636;52.424;-1.948;2024-02-23T11:19:37;97031.84;;;6.71;80.37
43364;BME280;40636;52.424;-1.948;2024-02-23T11:22:08;97029.06;;;6.76;80.71
43364;BME280;40636;52.424;-1.948;2024-02-23T11:24:49;97031.13;;;6.88;81.01
43364;BME280;40636;52.424;-1.948;2024-02-23T11:27:24;97030.66;;;7.00;81.14
43364;BME280;40636;52.424;-1.948;2024-02-23T11:30:02;97034.66;;;7.07;80.41
43364;BME280;40636;52.424;-1.948;2024-02-23T11:32:59;97037.50;;;7.01;80.18
43364;BME280;40636;52.424;-1.948;2024-02-23T11:35:27;97038.47;;;6.98;80.22
43364;BME280;40636;52.424;-1.948;2024-02-23T11:37:57;97044.53;;;6.97;80.20
43364;BME280;40636;52.424;-1.948;2024-02-23T11:40:30;97046.84;;;7.04;80.69
43364;BME280;40636;52.424;-1.948;2024-02-23T11:42:57;97047.47;;;7.09;80.88
43364;BME280;40636;52.424;-1.948;2024-02-23T11:45:30;97035.28;;;7.12;80.68
43364;BME280;40636;52.424;-1.948;2024-02-23T11:47:58;97051.41;;;7.17;80.42
43364;BME280;40636;52.424;-1.948;2024-02-23T11:50:26;97040.25;;;7.17;80.30
43364;BME280;40636;52.424;-1.948;2024-02-23T11:52:53;97043.47;;;7.22;80.64
43364;BME280;40636;52.424;-1.948;2024-02-23T11:55:21;97039.84;;;7.26;80.90
43364;BME280;40636;52.424;-1.948;2024-02-23T11:57:50;97041.41;;;7.30;80.55
43364;BME280;40636;52.424;-1.948;2024-02-23T12:00:30;97037.97;;;7.29;79.88
43364;BME280;40636;52.424;-1.948;2024-02-23T12:02:57;97042.44;;;7.26;79.92
43364;BME280;40636;52.424;-1.948;2024-02-23T12:05:24;97031.47;;;7.21;80.23
43364;BME280;40636;52.424;-1.948;2024-02-23T12:07:51;97038.38;;;7.20;80.34
43364;BME280;40636;52.424;-1.948;2024-02-23T12:10:20;97037.59;;;7.18;80.38
43364;BME280;40636;52.424;-1.948;2024-02-23T12:12:47;97035.22;;;7.14;80.25
43364;BME280;40636;52.424;-1.948;2024-02-23T12:15:14;97021.59;;;7.10;80.50
43364;BME280;40636;52.424;-1.948;2024-02-23T12:17:48;97028.38;;;7.13;81.01
43364;BME280;40636;52.424;-1.948;2024-02-23T12:20:15;97029.16;;;7.15;81.22
43364;BME280;40636;52.424;-1.948;2024-02-23T12:22:43;97029.03;;;7.18;81.53
43364;BME280;40636;52.424;-1.948;2024-02-23T12:25:12;97027.97;;;7.22;81.40
43364;BME280;40636;52.424;-1.948;2024-02-23T12:27:40;97027.00;;;7.24;81.29
43364;BME280;40636;52.424;-1.948;2024-02-23T12:30:16;97029.53;;;7.26;80.71
43364;BME280;40636;52.424;-1.948;2024-02-23T12:32:44;97030.28;;;7.28;81.03
43364;BME280;40636;52.424;-1.948;2024-02-23T12:35:12;97032.75;;;7.31;80.29
43364;BME280;40636;52.424;-1.948;2024-02-23T12:37:40;97035.97;;;7.36;80.83
43364;BME280;40636;52.424;-1.948;2024-02-23T12:40:11;97041.13;;;7.36;80.77
43364;BME280;40636;52.424;-1.948;2024-02-23T12:42:38;97036.88;;;7.35;80.18
43364;BME280;40636;52.424;-1.948;2024-02-23T12:45:05;97041.97;;;7.37;80.21
43364;BME280;40636;52.424;-1.948;2024-02-23T12:47:33;97042.72;;;7.39;80.26
43364;BME280;40636;52.424;-1.948;2024-02-23T12:50:00;97045.88;;;7.45;80.64
43364;BME280;40636;52.424;-1.948;2024-02-23T12:52:27;97038.00;;;7.48;80.32
43364;BME280;40636;52.424;-1.948;2024-02-23T12:54:54;97041.31;;;7.52;80.07
43364;BME280;40636;52.424;-1.948;2024-02-23T12:57:21;97034.13;;;7.58;79.70
43364;BME280;40636;52.424;-1.948;2024-02-23T12:59:48;97041.69;;;7.63;79.56
43364;BME280;40636;52.424;-1.948;2024-02-23T13:02:15;97040.00;;;7.62;78.43
43364;BME280;40636;52.424;-1.948;2024-02-23T13:04:42;97039.03;;;7.65;78.24